Time;durP1;ratioP1;P1;durP2;ratioP2;P2;SDS_P1;SDS_P2;PMS_P1;PMS_P2;Temp;Humidity;BMP_temperature;BMP_pressure;BME280_temperature;BME280_humidity;BME280_pressure;Samples;Min_cycle;Max_cycle;Signal;HPM_P1;HPM_P2
2022/04/21 00:00:55;;;;;;;6.88;3.65;;;;;;;-139.48;100.00;61774.03;5001660;28;20044;-68
2022/04/21 00:03:39;;;;;;;7.07;4.28;;;;;;;-139.48;100.00;61774.03;5001343;28;20053;-69
2022/04/21 00:06:23;;;;;;;6.05;3.88;;;;;;;-139.48;100.00;61774.03;5016123;28;20085;-69
2022/04/21 00:09:07;;;;;;;6.20;3.97;;;;;;;-139.48;100.00;61774.03;5001515;28;20048;-69
2022/04/21 00:11:51;;;;;;;7.18;3.72;;;;;;;-139.48;100.00;61774.03;5016211;28;20425;-69
2022/04/21 00:14:35;;;;;;;7.05;4.32;;;;;;;-139.48;100.00;61774.03;5001313;28;20125;-70
2022/04/21 00:17:19;;;;;;;4.80;3.80;;;;;;;-139.48;100.00;61774.03;5016226;28;20474;-69
2022/04/21 00:20:04;;;;;;;5.38;3.70;;;;;;;-139.48;100.00;61774.03;5016000;28;20132;-69
2022/04/21 00:25:50;;;;;;;5.15;3.95;;;;;;;-139.48;100.00;61774.03;5003549;28;20073;-70
2022/04/21 00:28:35;;;;;;;3.90;3.50;;;;;;;-139.48;100.00;61774.03;5000917;28;20044;-69
2022/04/21 00:31:18;;;;;;;;;;;;;;;-139.48;100.00;61774.03;5016638;28;20048;-69
2022/04/21 00:34:02;;;;;;;7.03;4.03;;;;;;;-139.48;100.00;61774.03;5014654;28;20346;-69
2022/04/21 00:36:46;;;;;;;6.70;3.63;;;;;;;-139.48;100.00;61774.03;5000556;28;20129;-69
2022/04/21 00:39:34;;;;;;;7.05;4.07;;;;;;;-139.48;100.00;61774.03;4987169;28;20112;-69
2022/04/21 00:42:18;;;;;;;3.85;3.35;;;;;;;-139.48;100.00;61774.03;5001492;28;20048;-69
2022/04/21 00:45:02;;;;;;;5.85;3.80;;;;;;;-139.48;100.00;61774.03;5000712;28;20496;-69
2022/04/21 00:47:47;;;;;;;5.80;3.97;;;;;;;-139.48;100.00;61774.03;5015603;28;20052;-69
2022/04/21 00:50:35;;;;;;;4.95;3.80;;;;;;;-139.48;100.00;61774.03;5000782;28;20541;-69
2022/04/21 00:53:19;;;;;;;6.15;3.85;;;;;;;-139.48;100.00;61774.03;5000737;28;20092;-69
2022/04/21 00:56:04;;;;;;;4.32;3.67;;;;;;;-139.48;100.00;61774.03;5000282;28;20052;-69
2022/04/21 00:58:48;;;;;;;6.72;4.45;;;;;;;-139.48;100.00;61774.03;5000543;28;20097;-70
2022/04/21 01:04:34;;;;;;;6.25;4.32;;;;;;;-139.48;100.00;61774.03;5015165;28;20108;-68
2022/04/21 01:07:20;;;;;;;4.82;3.80;;;;;;;-139.48;100.00;61774.03;5000434;28;20064;-70
2022/04/21 01:10:04;;;;;;;8.05;4.10;;;;;;;-139.48;100.00;61774.03;5015057;28;20044;-69
2022/04/21 01:12:49;;;;;;;5.43;4.07;;;;;;;-139.48;100.00;61774.03;5015134;28;20053;-69
2022/04/21 01:15:33;;;;;;;10.40;4.65;;;;;;;-139.48;100.00;61774.03;4986669;28;20045;-69
2022/04/21 01:18:26;;;;;;;5.75;3.78;;;;;;;-139.48;100.00;61774.03;5014995;28;20179;-69
2022/04/21 01:21:10;;;;;;;6.40;3.87;;;;;;;-139.48;100.00;61774.03;5000287;28;20045;-69
2022/04/21 01:23:55;;;;;;;7.80;4.28;;;;;;;-139.48;100.00;61774.03;4999997;28;20041;-69
2022/04/21 01:26:39;;;;;;;5.85;4.15;;;;;;;-139.48;100.00;61774.03;5014512;28;20056;-69
2022/04/21 01:29:24;;;;;;;5.30;4.15;;;;;;;-139.48;100.00;61774.03;5014587;28;20108;-69
2022/04/21 01:32:08;;;;;;;6.88;4.13;;;;;;;-139.48;100.00;61774.03;4999730;28;20132;-69
2022/04/21 01:34:52;;;;;;;7.20;3.88;;;;;;;-139.48;100.00;61774.03;5000577;28;20052;-69
2022/04/21 01:43:43;;;;;;;5.32;4.57;;;;;;;-139.48;100.00;61774.03;5002365;28;20049;-69
2022/04/21 01:46:27;;;;;;;7.38;4.35;;;;;;;-139.48;100.00;61774.03;5014168;28;20076;-69
2022/04/21 01:49:11;;;;;;;6.57;4.85;;;;;;;-139.48;100.00;61774.03;4999582;28;20052;-69
2022/04/21 01:51:55;;;;;;;12.90;5.75;;;;;;;-139.48;100.00;61774.03;4999583;28;20104;-69
2022/04/21 01:54:39;;;;;;;9.35;5.53;;;;;;;-139.48;100.00;61774.03;4999218;28;20049;-69
2022/04/21 01:57:23;;;;;;;9.82;5.65;;;;;;;-139.48;100.00;61774.03;5014149;28;20457;-69
2022/04/21 02:00:07;;;;;;;8.73;5.75;;;;;;;-139.48;100.00;61774.03;4999233;28;20060;-69
2022/04/21 02:02:51;;;;;;;11.18;6.25;;;;;;;-139.48;100.00;61774.03;5014081;28;20563;-69
2022/04/21 02:05:35;;;;;;;9.43;5.72;;;;;;;-139.48;100.00;61774.03;4999075;28;20100;-69
2022/04/21 02:08:19;;;;;;;8.88;6.00;;;;;;;-139.48;100.00;61774.03;4985526;28;20115;-69
2022/04/21 02:11:03;;;;;;;10.40;6.00;;;;;;;-139.48;100.00;61774.03;4999106;28;20048;-69
2022/04/21 02:13:47;;;;;;;9.48;5.90;;;;;;;-139.48;100.00;61774.03;5014400;28;20056;-69
2022/04/21 02:16:31;;;;;;;9.00;5.50;;;;;;;-139.48;100.00;61774.03;4999095;28;20049;-69
2022/04/21 02:19:15;;;;;;;6.22;5.53;;;;;;;-139.48;100.00;61774.03;4985117;28;20053;-69
2022/04/21 02:21:58;;;;;;;8.10;6.22;;;;;;;-139.48;100.00;61774.03;4999331;28;20049;-69
2022/04/21 02:24:42;;;;;;;10.70;6.95;;;;;;;-139.48;100.00;61774.03;5013806;28;20061;-69
2022/04/21 02:27:26;;;;;;;8.30;6.57;;;;;;;-139.48;100.00;61774.03;4998755;28;20053;-69
2022/04/21 02:30:12;;;;;;;7.60;5.78;;;;;;;-139.48;100.00;61774.03;5013851;28;20044;-69
2022/04/21 02:32:56;;;;;;;7.80;5.90;;;;;;;-139.48;100.00;61774.03;4999305;28;20056;-69
2022/04/21 02:35:40;;;;;;;10.57;6.55;;;;;;;-139.48;100.00;61774.03;4998552;28;20100;-69
2022/04/21 02:38:24;;;;;;;8.07;6.28;;;;;;;-139.48;100.00;61774.03;4998766;28;20545;-69
2022/04/21 02:41:08;;;;;;;7.28;6.57;;;;;;;-139.48;100.00;61774.03;5013445;28;20053;-69
2022/04/21 02:43:52;;;;;;;9.05;6.50;;;;;;;-139.48;100.00;61774.03;4998554;28;20421;-69
2022/04/21 02:46:36;;;;;;;8.25;6.57;;;;;;;-139.48;100.00;61774.03;4998932;28;20048;-69
2022/04/21 02:49:20;;;;;;;13.57;7.32;;;;;;;-139.48;100.00;61774.03;5013808;28;20064;-69
2022/04/21 02:52:06;;;;;;;7.80;6.05;;;;;;;-139.48;100.00;61774.03;4998427;28;20049;-69
2022/04/21 02:57:53;;;;;;;8.35;6.65;;;;;;;-139.48;100.00;61774.03;5001020;28;20096;-70
2022/04/21 03:00:37;;;;;;;8.77;6.82;;;;;;;-139.48;100.00;61774.03;4998833;28;20056;-69
2022/04/21 03:03:21;;;;;;;9.98;6.32;;;;;;;-139.48;100.00;61774.03;5013484;28;20493;-69
2022/04/21 03:06:05;;;;;;;8.32;6.70;;;;;;;-139.48;100.00;61774.03;4998201;28;20092;-69
2022/04/21 03:08:49;;;;;;;10.30;7.25;;;;;;;-139.48;100.00;61774.03;4998530;28;20521;-69
2022/04/21 03:11:33;;;;;;;9.93;7.10;;;;;;;-139.48;100.00;61774.03;4999383;28;20053;-69
2022/04/21 03:14:18;;;;;;;10.35;7.80;;;;;;;-139.48;100.00;61774.03;4988559;28;20104;-69
2022/04/21 03:17:04;;;;;;;10.38;6.72;;;;;;;-139.48;100.00;61774.03;5017595;28;20116;-69
2022/04/21 03:19:48;;;;;;;8.57;7.15;;;;;;;-139.48;100.00;61774.03;5017259;28;20049;-69
2022/04/21 03:25:35;;;;;;;10.60;7.55;;;;;;;-139.48;100.00;61774.03;5004933;28;20460;-69
2022/04/21 03:28:19;;;;;;;10.48;7.03;;;;;;;-139.48;100.00;61774.03;5002245;28;20406;-69
2022/04/21 03:31:03;;;;;;;10.23;7.15;;;;;;;-139.48;100.00;61774.03;5001962;28;20104;-70
2022/04/21 03:33:47;;;;;;;9.50;7.63;;;;;;;-139.48;100.00;61774.03;5002109;28;20102;-69
2022/04/21 03:36:33;;;;;;;8.80;7.53;;;;;;;-139.48;100.00;61774.03;5001756;28;20045;-69
2022/04/21 03:39:20;;;;;;;11.35;7.25;;;;;;;-139.48;100.00;61774.03;4988259;28;20600;-69
2022/04/21 03:42:04;;;;;;;10.00;7.70;;;;;;;-139.48;100.00;61774.03;5002063;28;20552;-69
2022/04/21 03:44:49;;;;;;;8.27;7.15;;;;;;;-139.48;100.00;61774.03;5001937;28;20049;-69
2022/04/21 03:47:34;;;;;;;9.18;6.80;;;;;;;-139.48;100.00;61774.03;5001900;28;20140;-69
2022/04/21 03:50:18;;;;;;;9.88;7.20;;;;;;;-139.48;100.00;61774.03;5002121;28;20049;-69
2022/04/21 03:53:01;;;;;;;11.07;7.07;;;;;;;-139.48;100.00;61774.03;5016426;28;20103;-69
2022/04/21 03:55:45;;;;;;;9.65;7.00;;;;;;;-139.48;100.00;61774.03;5016216;28;20520;-69
2022/04/21 03:58:29;;;;;;;9.20;7.65;;;;;;;-139.48;100.00;61774.03;5016329;28;20129;-69
2022/04/21 04:01:13;;;;;;;11.07;7.75;;;;;;;-139.48;100.00;61774.03;5001629;28;20145;-69
2022/04/21 04:03:57;;;;;;;9.40;7.00;;;;;;;-139.48;100.00;61774.03;4988053;28;20056;-69
2022/04/21 04:12:47;;;;;;;9.00;7.65;;;;;;;-139.48;100.00;61774.03;5004115;28;20053;-69
2022/04/21 04:15:31;;;;;;;11.85;8.82;;;;;;;-139.48;100.00;61774.03;5001142;28;20413;-69
2022/04/21 04:18:16;;;;;;;14.88;9.23;;;;;;;-139.48;100.00;61774.03;5001355;28;20597;-69
2022/04/21 04:21:00;;;;;;;13.05;8.80;;;;;;;-139.48;100.00;61774.03;5001231;28;20099;-69
2022/04/21 04:23:43;;;;;;;10.38;8.23;;;;;;;-139.48;100.00;61774.03;5015966;28;20078;-70
2022/04/21 04:26:27;;;;;;;11.55;8.65;;;;;;;-139.48;100.00;61774.03;5015903;28;20084;-69
2022/04/21 04:29:11;;;;;;;12.05;8.98;;;;;;;-139.48;100.00;61774.03;5001159;28;20172;-69
2022/04/21 04:31:57;;;;;;;13.80;8.50;;;;;;;-139.48;100.00;61774.03;5016201;28;20052;-69
2022/04/21 04:34:44;;;;;;;11.27;8.35;;;;;;;-139.48;100.00;61774.03;5000860;28;20088;-69
2022/04/21 04:37:28;;;;;;;13.50;8.13;;;;;;;-139.48;100.00;61774.03;5000971;28;20053;-69
2022/04/21 04:40:12;;;;;;;11.40;7.57;;;;;;;-139.48;100.00;61774.03;5000597;28;20049;-69
2022/04/21 04:42:56;;;;;;;11.65;7.63;;;;;;;-139.48;100.00;61774.03;4986975;28;20045;-69
2022/04/21 04:48:42;;;;;;;9.05;6.85;;;;;;;-139.48;100.00;61774.03;5015595;28;20045;-69
2022/04/21 04:51:27;;;;;;;9.48;7.63;;;;;;;-139.48;100.00;61774.03;5000602;28;20108;-69
2022/04/21 04:54:13;;;;;;;9.07;7.70;;;;;;;-139.48;100.00;61774.03;5015444;28;20076;-69
2022/04/21 04:56:57;;;;;;;13.07;7.68;;;;;;;-139.48;100.00;61774.03;5000634;28;20453;-69
2022/04/21 04:59:41;;;;;;;10.45;7.85;;;;;;;-139.48;100.00;61774.03;5000383;28;20053;-69
2022/04/21 05:02:25;;;;;;;10.60;8.05;;;;;;;-139.48;100.00;61774.03;5000288;28;20044;-69
2022/04/21 05:05:09;;;;;;;13.40;8.35;;;;;;;-139.48;100.00;61774.03;5014982;28;20049;-69
2022/04/21 05:07:53;;;;;;;10.90;7.60;;;;;;;-139.48;100.00;61774.03;4986407;28;20390;-69
2022/04/21 05:10:38;;;;;;;12.98;8.20;;;;;;;-139.48;100.00;61774.03;5000141;28;20647;-69
2022/04/21 05:13:23;;;;;;;13.88;8.57;;;;;;;-139.48;100.00;61774.03;5014923;28;20552;-69
2022/04/21 05:16:08;;;;;;;11.98;7.78;;;;;;;-139.48;100.00;61774.03;5014683;28;20057;-69
2022/04/21 05:18:52;;;;;;;10.15;7.60;;;;;;;-139.48;100.00;61774.03;4986414;28;20048;-69
2022/04/21 05:21:37;;;;;;;10.57;8.23;;;;;;;-139.48;100.00;61774.03;5000434;28;20065;-69
2022/04/21 05:24:22;;;;;;;14.48;9.02;;;;;;;-139.48;100.00;61774.03;5000120;28;20056;-69
2022/04/21 05:27:07;;;;;;;11.82;8.93;;;;;;;-139.48;100.00;61774.03;4999999;28;20044;-69
2022/04/21 05:32:54;;;;;;;10.43;8.23;;;;;;;-139.48;100.00;61774.03;5002555;28;20048;-69
2022/04/21 05:35:39;;;;;;;13.88;8.55;;;;;;;-139.48;100.00;61774.03;4984977;28;20084;-69
2022/04/21 05:38:24;;;;;;;13.30;8.93;;;;;;;-139.48;100.00;61774.03;5014743;28;20056;-69
2022/04/21 05:41:08;;;;;;;15.50;8.90;;;;;;;-139.48;100.00;61774.03;4986060;28;20133;-69
2022/04/21 05:43:53;;;;;;;12.07;7.90;;;;;;;-139.48;100.00;61774.03;4986031;28;20107;-69
2022/04/21 05:46:37;;;;;;;12.07;8.85;;;;;;;-139.48;100.00;61774.03;5014246;28;20504;-69
2022/04/21 05:49:21;;;;;;;11.73;8.60;;;;;;;-139.48;100.00;61774.03;4999360;28;20049;-69
2022/04/21 05:52:07;;;;;;;12.68;8.93;;;;;;;-139.48;100.00;61774.03;4999660;28;20469;-69
2022/04/21 05:54:51;;;;;;;10.35;8.30;;;;;;;-139.48;100.00;61774.03;4999387;28;20126;-69
2022/04/21 05:57:38;;;;;;;11.23;8.68;;;;;;;-139.48;100.00;61774.03;4999580;28;20096;-70
2022/04/21 06:00:22;;;;;;;14.35;9.48;;;;;;;-139.48;100.00;61774.03;5014316;28;20052;-69
2022/04/21 06:03:06;;;;;;;11.93;9.15;;;;;;;-139.48;100.00;61774.03;4985648;28;20049;-69
2022/04/21 06:05:50;;;;;;;14.45;8.88;;;;;;;-139.48;100.00;61774.03;4999057;28;20061;-69
2022/04/21 06:08:35;;;;;;;12.48;9.43;;;;;;;-139.48;100.00;61774.03;4999292;28;20053;-69
2022/04/21 06:11:19;;;;;;;14.10;9.27;;;;;;;-139.48;100.00;61774.03;4999248;28;20500;-69
2022/04/21 06:14:03;;;;;;;13.43;8.88;;;;;;;-139.48;100.00;61774.03;5014155;28;20128;-69
2022/04/21 06:16:47;;;;;;;12.70;9.63;;;;;;;-139.48;100.00;61774.03;5013795;28;20096;-69
2022/04/21 06:19:31;;;;;;;17.10;9.48;;;;;;;-139.48;100.00;61774.03;4999151;28;20053;-69
2022/04/21 06:22:15;;;;;;;13.15;9.38;;;;;;;-139.48;100.00;61774.03;4985019;28;20053;-69
2022/04/21 06:24:59;;;;;;;12.30;9.60;;;;;;;-139.48;100.00;61774.03;5013816;28;20513;-69
2022/04/21 06:27:43;;;;;;;12.50;9.68;;;;;;;-139.48;100.00;61774.03;4998778;28;20132;-69
2022/04/21 06:30:27;;;;;;;15.52;10.63;;;;;;;-139.48;100.00;61774.03;4999179;28;20060;-69
2022/04/21 06:33:12;;;;;;;14.35;9.95;;;;;;;-139.48;100.00;61774.03;4984951;28;20080;-69
2022/04/21 06:35:56;;;;;;;13.55;9.82;;;;;;;-139.48;100.00;61774.03;5013376;28;20096;-69
2022/04/21 06:38:40;;;;;;;12.10;9.38;;;;;;;-139.48;100.00;61774.03;5013646;28;20104;-70
2022/04/21 06:41:24;;;;;;;14.02;10.13;;;;;;;-139.48;100.00;61774.03;5013668;28;20052;-69
2022/04/21 06:50:13;;;;;;;13.82;9.55;;;;;;;-139.48;100.00;61774.03;5001345;28;20044;-69
2022/04/21 06:52:57;;;;;;;14.80;10.57;;;;;;;-139.48;100.00;61774.03;4998901;28;20187;-69
2022/04/21 06:55:41;;;;;;;14.32;9.82;;;;;;;-139.48;100.00;61774.03;4998573;28;20104;-69
2022/04/21 06:58:25;;;;;;;12.18;9.80;;;;;;;-139.48;100.00;61774.03;5013735;28;20049;-69
2022/04/21 07:01:09;;;;;;;13.43;9.90;;;;;;;-139.48;100.00;61774.03;5013423;28;20048;-69
2022/04/21 07:03:53;;;;;;;16.58;10.40;;;;;;;-139.48;100.00;61774.03;4984910;28;20053;-69
2022/04/21 07:06:37;;;;;;;15.70;10.52;;;;;;;-139.48;100.00;61774.03;5013352;28;20053;-69
2022/04/21 07:09:21;;;;;;;15.05;10.98;;;;;;;-139.48;100.00;61774.03;4998734;28;20104;-69
2022/04/21 07:12:05;;;;;;;12.95;10.93;;;;;;;-139.48;100.00;61774.03;4984746;28;20049;-70
2022/04/21 07:14:49;;;;;;;15.57;11.15;;;;;;;-139.48;100.00;61774.03;5013401;28;20093;-69
2022/04/21 07:17:34;;;;;;;14.82;10.75;;;;;;;-139.48;100.00;61774.03;5013313;28;20049;-69
2022/04/21 07:20:18;;;;;;;13.27;10.50;;;;;;;-139.48;100.00;61774.03;4998953;28;20052;-70
2022/04/21 07:23:02;;;;;;;15.80;10.85;;;;;;;-139.48;100.00;61774.03;4998660;28;20114;-69
2022/04/21 07:25:46;;;;;;;13.55;10.48;;;;;;;-139.48;100.00;61774.03;5013261;28;20045;-69
2022/04/21 07:28:30;;;;;;;13.75;11.05;;;;;;;-139.48;100.00;61774.03;4998306;28;20104;-70
2022/04/21 07:31:14;;;;;;;12.93;10.25;;;;;;;-139.48;100.00;61774.03;5013453;28;20092;-70
2022/04/21 07:33:58;;;;;;;17.00;11.55;;;;;;;-139.48;100.00;61774.03;4998651;28;20057;-69
2022/04/21 07:36:42;;;;;;;12.32;10.10;;;;;;;-139.48;100.00;61774.03;4985822;28;20056;-69
2022/04/21 07:39:26;;;;;;;18.55;11.10;;;;;;;-139.48;100.00;61774.03;4998381;28;20137;-70
2022/04/21 07:42:10;;;;;;;14.07;10.50;;;;;;;-139.48;100.00;61774.03;4998176;28;20516;-69
2022/04/21 07:44:57;;;;;;;13.63;10.75;;;;;;;-139.48;100.00;61774.03;4998099;28;20053;-70
2022/04/21 07:47:41;;;;;;;13.50;10.95;;;;;;;-139.48;100.00;61774.03;5012995;28;20099;-69
2022/04/21 07:50:25;;;;;;;15.15;10.98;;;;;;;-139.48;100.00;61774.03;5013222;28;20053;-70
2022/04/21 07:53:15;;;;;;;14.77;10.63;;;;;;;-139.48;100.00;61774.03;4998322;28;20048;-69
2022/04/21 07:55:59;;;;;;;14.07;11.15;;;;;;;-139.48;100.00;61774.03;4998817;28;20156;-69
2022/04/21 07:58:43;;;;;;;12.38;10.40;;;;;;;-139.48;100.00;61774.03;5000614;28;20414;-70
2022/04/21 08:01:27;;;;;;;14.63;11.20;;;;;;;-139.48;100.00;61774.03;5001640;28;20129;-70
2022/04/21 08:04:11;;;;;;;14.65;10.82;;;;;;;-139.48;100.00;61774.03;5016634;28;20099;-70
2022/04/21 08:06:55;;;;;;;13.98;11.50;;;;;;;-139.48;100.00;61774.03;4988044;28;20107;-70
2022/04/21 08:09:40;;;;;;;17.52;11.13;;;;;;;-139.48;100.00;61774.03;5016573;28;20045;-69
2022/04/21 08:12:24;;;;;;;16.55;11.98;;;;;;;-139.48;100.00;61774.03;5016366;28;20051;-69
2022/04/21 08:15:09;;;;;;;16.75;12.38;;;;;;;-139.48;100.00;61774.03;5001577;28;20049;-70
2022/04/21 08:17:58;;;;;;;20.52;10.70;;;;;;;-139.48;100.00;61774.03;5001617;28;20081;-70
2022/04/21 08:20:42;;;;;;;14.60;11.38;;;;;;;-139.48;100.00;61774.03;5001315;28;20482;-70
2022/04/21 08:23:26;;;;;;;14.05;11.35;;;;;;;-139.48;100.00;61774.03;4987866;28;20139;-70
2022/04/21 08:32:33;;;;;;;15.80;10.80;;;;;;;-139.48;100.00;61774.03;5004053;28;20048;-70
2022/04/21 08:35:19;;;;;;;16.58;11.35;;;;;;;-139.48;100.00;61774.03;5003881;28;20057;-70
2022/04/21 08:38:03;;;;;;;14.50;11.52;;;;;;;-139.48;100.00;61774.03;5001474;28;20053;-70
2022/04/21 08:40:54;;;;;;;14.38;12.07;;;;;;;-139.48;100.00;61774.03;5016080;28;20049;-70
2022/04/21 08:43:38;;;;;;;15.48;11.20;;;;;;;-139.48;100.00;61774.03;5015722;28;20103;-69
2022/04/21 08:46:25;;;;;;;16.95;11.52;;;;;;;-139.48;100.00;61774.03;5000750;28;20096;-70
2022/04/21 08:49:10;;;;;;;15.32;11.50;;;;;;;-139.48;100.00;61774.03;5015847;28;20061;-70
2022/04/21 08:51:55;;;;;;;17.23;13.00;;;;;;;-139.48;100.00;61774.03;5000734;28;20099;-69
2022/04/21 08:54:40;;;;;;;15.07;11.77;;;;;;;-139.48;100.00;61774.03;5000836;28;20049;-69
2022/04/21 08:57:24;;;;;;;16.42;11.63;;;;;;;-139.48;100.00;61774.03;5000657;28;20049;-69
2022/04/21 09:00:08;;;;;;;15.15;10.60;;;;;;;-139.48;100.00;61774.03;5000956;28;20053;-69
2022/04/21 09:02:53;;;;;;;12.93;11.07;;;;;;;-139.48;100.00;61774.03;5000889;28;20493;-69
2022/04/21 09:05:37;;;;;;;14.20;11.48;;;;;;;-139.48;100.00;61774.03;5000635;28;20452;-69
2022/04/21 09:08:23;;;;;;;15.05;11.43;;;;;;;-139.48;100.00;61774.03;5000267;28;20474;-69
2022/04/21 09:11:10;;;;;;;14.20;10.60;;;;;;;-139.48;100.00;61774.03;5000484;28;20061;-69
2022/04/21 09:13:58;;;;;;;13.90;11.55;;;;;;;-139.48;100.00;61774.03;5000609;28;20053;-69
2022/04/21 09:16:43;;;;;;;12.15;9.93;;;;;;;-139.48;100.00;61774.03;5014984;28;20088;-69
2022/04/21 09:19:27;;;;;;;12.95;10.15;;;;;;;-139.48;100.00;61774.03;5015356;28;20088;-69
2022/04/21 09:22:11;;;;;;;15.88;10.25;;;;;;;-139.48;100.00;61774.03;5000361;28;20056;-69
2022/04/21 09:24:54;;;;;;;14.48;9.48;;;;;;;-139.48;100.00;61774.03;4986473;28;20123;-69
2022/04/21 09:27:43;;;;;;;11.98;9.48;;;;;;;-139.48;100.00;61774.03;5000293;28;20053;-69
2022/04/21 09:30:27;;;;;;;13.75;9.43;;;;;;;-139.48;100.00;61774.03;5000257;28;20045;-69
2022/04/21 09:33:11;;;;;;;11.63;9.40;;;;;;;-139.48;100.00;61774.03;5000277;28;20099;-70
2022/04/21 09:35:56;;;;;;;13.15;8.55;;;;;;;-139.48;100.00;61774.03;5014472;28;20092;-69
2022/04/21 09:38:40;;;;;;;8.98;7.53;;;;;;;-139.48;100.00;61774.03;4999796;28;20084;-69
2022/04/21 09:41:27;;;;;;;9.38;8.13;;;;;;;-139.48;100.00;61774.03;5014982;28;20421;-69
2022/04/21 09:47:17;;;;;;;10.25;7.55;;;;;;;-139.48;100.00;61774.03;5014590;28;20049;-69
2022/04/21 09:50:12;;;;;;;13.38;7.38;;;;;;;-139.48;100.00;61774.03;5014638;28;20068;-69
2022/04/21 09:52:56;;;;;;;7.10;6.35;;;;;;;-139.48;100.00;61774.03;4999640;28;20096;-69
2022/04/21 09:55:40;;;;;;;7.65;6.85;;;;;;;-139.48;100.00;61774.03;4999625;28;20052;-69
2022/04/21 09:58:24;;;;;;;9.38;6.30;;;;;;;-139.48;100.00;61774.03;4986021;28;20052;-70
2022/04/21 10:01:09;;;;;;;7.32;6.07;;;;;;;-139.48;100.00;61774.03;4985964;28;20053;-69
2022/04/21 10:03:53;;;;;;;7.07;5.10;;;;;;;-139.48;100.00;61774.03;4999646;28;20509;-69
2022/04/21 10:06:41;;;;;;;5.78;5.13;;;;;;;-139.48;100.00;61774.03;5014444;28;20119;-70
2022/04/21 10:09:27;;;;;;;6.30;5.10;;;;;;;-139.48;100.00;61774.03;4985776;28;20100;-70
2022/04/21 10:12:11;;;;;;;5.50;5.00;;;;;;;-139.48;100.00;61774.03;4999238;28;20132;-70
2022/04/21 10:14:54;;;;;;;;;;;;;;;-139.48;100.00;61774.03;4999454;28;20048;-70
2022/04/21 10:17:39;;;;;;;5.65;4.20;;;;;;;-139.48;100.00;61774.03;5014188;28;19920;-70
2022/04/21 10:20:29;;;;;;;4.63;3.63;;;;;;;-139.48;100.00;61774.03;4999004;28;20409;-70
2022/04/21 10:23:17;;;;;;;4.57;3.97;;;;;;;-139.48;100.00;61774.03;4999369;28;20433;-70
2022/04/21 10:26:03;;;;;;;5.13;3.88;;;;;;;-139.48;100.00;61774.03;5013920;28;20061;-69
2022/04/21 10:28:50;;;;;;;3.80;3.50;;;;;;;-139.48;100.00;61774.03;4998976;28;20557;-70
2022/04/21 10:31:35;;;;;;;5.65;3.33;;;;;;;-139.48;100.00;61774.03;4999352;28;20053;-70
2022/04/21 10:34:48;;;;;;;3.30;3.00;;;;;;;-139.48;100.00;61774.03;4999131;28;20087;-70
2022/04/21 10:37:32;;;;;;;3.30;2.33;;;;;;;-139.48;100.00;61774.03;4999334;28;20096;-70
2022/04/21 10:40:21;;;;;;;4.93;2.40;;;;;;;-139.48;100.00;61774.03;4999065;28;20100;-70
2022/04/21 10:43:05;;;;;;;3.15;2.85;;;;;;;-139.48;100.00;61774.03;4999466;28;20424;-70
2022/04/21 10:46:05;;;;;;;3.13;2.83;;;;;;;-139.48;100.00;61774.03;4998929;28;20045;-70
2022/04/21 10:48:50;;;;;;;2.55;2.28;;;;;;;-139.48;100.00;61774.03;5013827;28;20057;-70
2022/04/21 10:57:50;;;;;;;3.85;2.22;;;;;;;-139.48;100.00;61774.03;5013493;28;20087;-69
2022/04/21 11:00:33;;;;;;;4.38;2.20;;;;;;;-139.48;100.00;61774.03;4998788;28;20049;-69
2022/04/21 11:03:24;;;;;;;;;;;;;;;-139.48;100.00;61774.03;4999201;28;20056;-69
2022/04/21 11:06:13;;;;;;;2.30;2.10;;;;;;;-139.48;100.00;61774.03;5013675;28;19959;-69
2022/04/21 11:09:00;;;;;;;3.65;2.15;;;;;;;-139.48;100.00;61774.03;4998675;28;20084;-70
2022/04/21 11:11:46;;;;;;;5.88;2.50;;;;;;;-139.48;100.00;61774.03;4998848;28;20053;-69
2022/04/21 11:14:32;;;;;;;2.58;2.38;;;;;;;-139.48;100.00;61774.03;5013492;28;20060;-70
2022/04/21 11:17:16;;;;;;;3.03;2.40;;;;;;;-139.48;100.00;61774.03;5013629;28;20088;-70
2022/04/21 11:20:00;;;;;;;;;;;;;;;-139.48;100.00;61774.03;4999145;28;20048;-70
2022/04/21 11:22:44;;;;;;;5.45;1.92;;;;;;;-139.48;100.00;61774.03;5012363;28;19920;-70
2022/04/21 11:25:35;;;;;;;3.08;2.22;;;;;;;-139.48;100.00;61774.03;5013303;28;20492;-69
2022/04/21 11:28:25;;;;;;;5.03;2.50;;;;;;;-139.48;100.00;61774.03;4999117;28;20104;-70
2022/04/21 11:31:10;;;;;;;2.95;2.50;;;;;;;-139.48;100.00;61774.03;4998624;28;20180;-70
2022/04/21 11:33:59;;;;;;;4.47;2.40;;;;;;;-139.48;100.00;61774.03;5001236;28;20137;-70
2022/04/21 11:36:44;;;;;;;5.47;2.42;;;;;;;-139.48;100.00;61774.03;5002286;28;20513;-70
2022/04/21 11:39:28;;;;;;;6.90;2.40;;;;;;;-139.48;100.00;61774.03;5016814;28;20100;-70
2022/04/21 11:42:23;;;;;;;2.58;2.38;;;;;;;-139.48;100.00;61774.03;5016863;28;20096;-70
2022/04/21 11:45:07;;;;;;;2.70;2.50;;;;;;;-139.48;100.00;61774.03;5002232;28;20041;-70
2022/04/21 11:47:52;;;;;;;2.60;2.40;;;;;;;-139.48;100.00;61774.03;5002470;28;20048;-70
2022/04/21 11:50:36;;;;;;;3.75;2.60;;;;;;;-139.48;100.00;61774.03;5001861;28;20049;-70
2022/04/21 11:53:20;;;;;;;2.63;2.40;;;;;;;-139.48;100.00;61774.03;5001986;28;20045;-70
2022/04/21 11:56:04;;;;;;;7.68;2.30;;;;;;;-139.48;100.00;61774.03;5001814;28;20056;-70
2022/04/21 11:58:48;;;;;;;2.22;1.98;;;;;;;-139.48;100.00;61774.03;5001937;28;20080;-70
2022/04/21 12:07:40;;;;;;;3.13;2.65;;;;;;;-139.48;100.00;61774.03;5004406;28;20103;-70
2022/04/21 12:10:24;;;;;;;8.30;3.03;;;;;;;-139.48;100.00;61774.03;5016564;28;20049;-70
2022/04/21 12:13:09;;;;;;;3.95;2.40;;;;;;;-139.48;100.00;61774.03;5001629;28;20095;-70
2022/04/21 12:15:53;;;;;;;3.13;2.60;;;;;;;-139.48;100.00;61774.03;5001164;28;20053;-70
2022/04/21 12:18:45;;;;;;;4.60;2.60;;;;;;;-139.48;100.00;61774.03;5001373;28;20523;-70
2022/04/21 12:21:36;;;;;;;4.15;2.90;;;;;;;-139.48;100.00;61774.03;5016535;28;20045;-68
2022/04/21 12:24:20;;;;;;;14.25;3.30;;;;;;;-139.48;100.00;61774.03;5001377;28;20080;-69
2022/04/21 12:27:16;;;;;;;4.32;2.92;;;;;;;-139.48;100.00;61774.03;5001212;28;20092;-70
2022/04/21 12:30:14;;;;;;;3.85;2.70;;;;;;;-139.48;100.00;61774.03;5001318;28;20045;-70
2022/04/21 12:32:57;;;;;;;7.93;3.10;;;;;;;-139.48;100.00;61774.03;5001661;28;20549;-70
2022/04/21 12:35:45;;;;;;;;;;;;;;;-139.48;100.00;61774.03;5016125;28;20520;-70
2022/04/21 12:41:32;;;;;;;5.68;3.40;;;;;;;-139.48;100.00;61774.03;5016016;28;20096;-70
2022/04/21 12:44:18;;;;;;;4.18;3.40;;;;;;;-139.48;100.00;61774.03;5000928;28;20059;-70
2022/04/21 12:47:13;;;;;;;6.05;3.40;;;;;;;-139.48;100.00;61774.03;5015870;28;20045;-70
2022/04/21 12:50:01;;;;;;;4.03;3.53;;;;;;;-139.48;100.00;61774.03;5000764;28;20045;-70
2022/04/21 12:52:49;;;;;;;6.30;3.38;;;;;;;-139.48;100.00;61774.03;5015491;28;20095;-69
2022/04/21 12:55:33;;;;;;;4.47;3.10;;;;;;;-139.48;100.00;61774.03;5000627;28;20180;-69
2022/04/21 12:58:27;;;;;;;5.97;3.42;;;;;;;-139.48;100.00;61774.03;5015719;28;20493;-69
2022/04/21 13:01:12;;;;;;;4.70;3.35;;;;;;;-139.48;100.00;61774.03;5000619;28;20049;-69
2022/04/21 13:04:02;;;;;;;6.13;3.60;;;;;;;-139.48;100.00;61774.03;5000901;28;20095;-69
2022/04/21 13:06:46;;;;;;;10.55;3.92;;;;;;;-139.48;100.00;61774.03;5001074;28;20512;-69
2022/04/21 13:09:31;;;;;;;5.80;3.85;;;;;;;-139.48;100.00;61774.03;5000648;28;20048;-69
2022/04/21 13:12:15;;;;;;;6.22;3.45;;;;;;;-139.48;100.00;61774.03;4986936;28;20048;-69
2022/04/21 13:15:00;;;;;;;5.65;3.60;;;;;;;-139.48;100.00;61774.03;5000318;28;20061;-70
2022/04/21 13:17:44;;;;;;;5.10;4.10;;;;;;;-139.48;100.00;61774.03;5000526;28;20049;-69
2022/04/21 13:23:31;;;;;;;6.60;4.00;;;;;;;-139.48;100.00;61774.03;5003097;28;20547;-69
2022/04/21 13:26:15;;;;;;;;;;;;;;;-139.48;100.00;61774.03;5000730;28;20111;-69
2022/04/21 13:28:59;;;;;;;5.03;3.92;;;;;;;-139.48;100.00;61774.03;5000531;28;19976;-69